createdAt,value
2023-05-14T00:07:09.812Z,0.01
2023-05-14T00:22:06.294Z,0
2023-05-14T00:37:02.303Z,0
2023-05-14T00:51:58.300Z,0
2023-05-14T01:06:54.626Z,0
2023-05-14T01:21:50.928Z,0
2023-05-14T01:36:46.831Z,0
2023-05-14T01:51:43.205Z,0
2023-05-14T02:06:39.344Z,0
2023-05-14T02:21:35.601Z,0
2023-05-14T02:36:31.635Z,0
2023-05-14T02:51:27.921Z,0.01
2023-05-14T03:06:24.355Z,0
2023-05-14T03:21:20.658Z,0.02
2023-05-14T03:36:16.889Z,0
2023-05-14T03:51:12.822Z,0
2023-05-14T04:06:08.885Z,0.04
2023-05-14T04:21:05.642Z,0.04
2023-05-14T04:36:01.692Z,0.04
2023-05-14T04:50:58.332Z,0.05
2023-05-14T05:05:54.888Z,0.07
2023-05-14T05:20:51.306Z,0.1
2023-05-14T05:35:47.838Z,0.1
2023-05-14T05:50:44.290Z,0.1
2023-05-14T06:05:40.714Z,0.11
2023-05-14T06:20:37.201Z,0.13
2023-05-14T06:35:33.699Z,0.15
2023-05-14T06:50:30.266Z,0.16
2023-05-14T07:05:26.617Z,0.2
2023-05-14T07:20:23.157Z,0.19
2023-05-14T07:35:19.202Z,0.12
2023-05-14T07:50:15.139Z,0.18
2023-05-14T08:05:12.067Z,0.17
2023-05-14T08:20:08.914Z,0.22
2023-05-14T08:35:05.532Z,0.28
2023-05-14T08:50:02.421Z,0.39
2023-05-14T09:04:58.844Z,0.63
2023-05-14T09:19:55.513Z,0.88
2023-05-14T09:34:52.722Z,1.07
2023-05-14T09:49:49.435Z,0.21
2023-05-14T10:04:45.968Z,0.24
2023-05-14T10:19:42.394Z,0.3
2023-05-14T10:34:38.627Z,0.62
2023-05-14T10:49:42.647Z,0.34
2023-05-14T11:04:31.156Z,0.27
2023-05-14T11:19:26.752Z,0.31
2023-05-14T11:34:23.503Z,0.54
2023-05-14T12:04:15.841Z,0.18
2023-05-14T12:19:11.775Z,0.7
2023-05-14T12:34:08.167Z,0.28
2023-05-14T12:49:03.947Z,0.19
2023-05-14T13:04:00.196Z,0.1
2023-05-14T13:18:56.514Z,0.27
2023-05-14T13:33:52.386Z,0.38
2023-05-14T13:48:49.173Z,1.09
2023-05-14T14:03:47.044Z,0.63
2023-05-14T14:18:43.670Z,0.34
2023-05-14T14:33:39.207Z,0.3
2023-05-14T14:48:34.696Z,0.2
2023-05-14T15:03:30.620Z,0.27
2023-05-14T15:18:27.310Z,0.31
2023-05-14T15:33:23.824Z,0.23
2023-05-14T15:48:19.855Z,0.26
2023-05-14T16:03:16.286Z,0.14
2023-05-14T16:18:12.149Z,0.18
2023-05-14T16:33:08.721Z,0.15
2023-05-14T16:48:04.237Z,0.12
2023-05-14T17:03:00.364Z,0.11
2023-05-14T17:17:56.509Z,0.11
2023-05-14T17:32:52.224Z,0.1
2023-05-14T17:47:48.144Z,0.1
2023-05-14T18:02:44.079Z,0.09
2023-05-14T18:17:40.000Z,0.06
2023-05-14T18:32:35.681Z,0.05
2023-05-14T18:47:31.066Z,0.02
2023-05-14T19:02:27.019Z,0.03
2023-05-14T19:17:22.682Z,0.01
2023-05-14T19:32:18.511Z,0.01
2023-05-14T19:47:14.510Z,0
2023-05-14T20:02:09.975Z,0.01
2023-05-14T20:17:06.094Z,0
2023-05-14T20:32:02.162Z,0
2023-05-14T20:46:58.241Z,0
2023-05-14T21:01:54.452Z,0
2023-05-14T21:16:50.647Z,0
2023-05-14T21:31:46.686Z,0
2023-05-14T21:46:42.875Z,0
2023-05-14T22:01:55.961Z,0.01
2023-05-14T22:16:34.646Z,0
2023-05-14T22:31:30.559Z,0
2023-05-14T22:46:26.546Z,0
2023-05-14T23:01:22.384Z,0
2023-05-14T23:16:18.378Z,0
2023-05-14T23:31:14.904Z,0
2023-05-14T23:46:11.028Z,0
